sensor_id;sensor_type;location;lat;lon;timestamp;P1;durP1;ratioP1;P2;durP2;ratioP2
71148;SDS011;59072;42.144;25.200;2022-09-19T00:01:23;3.30;;;2.20;;
71148;SDS011;59072;42.144;25.200;2022-09-19T00:03:52;2.80;;;1.90;;
71148;SDS011;59072;42.144;25.200;2022-09-19T00:06:26;3.78;;;2.17;;
71148;SDS011;59072;42.144;25.200;2022-09-19T00:08:53;3.67;;;2.08;;
71148;SDS011;59072;42.144;25.200;2022-09-19T00:11:20;4.53;;;2.50;;
71148;SDS011;59072;42.144;25.200;2022-09-19T00:13:46;3.08;;;2.00;;
71148;SDS011;59072;42.144;25.200;2022-09-19T00:16:18;4.15;;;2.75;;
71148;SDS011;59072;42.144;25.200;2022-09-19T00:18:46;3.47;;;2.13;;
71148;SDS011;59072;42.144;25.200;2022-09-19T00:21:22;4.75;;;2.67;;
71148;SDS011;59072;42.144;25.200;2022-09-19T00:23:52;3.50;;;2.50;;
71148;SDS011;59072;42.144;25.200;2022-09-19T00:26:37;5.18;;;2.47;;
71148;SDS011;59072;42.144;25.200;2022-09-19T00:29:04;4.50;;;2.47;;
71148;SDS011;59072;42.144;25.200;2022-09-19T00:31:31;3.55;;;2.38;;
71148;SDS011;59072;42.144;25.200;2022-09-19T00:33:57;4.82;;;2.42;;
71148;SDS011;59072;42.144;25.200;2022-09-19T00:36:22;3.97;;;2.30;;
71148;SDS011;59072;42.144;25.200;2022-09-19T00:38:49;2.78;;;2.10;;
71148;SDS011;59072;42.144;25.200;2022-09-19T00:41:15;3.63;;;2.38;;
71148;SDS011;59072;42.144;25.200;2022-09-19T00:46:09;3.55;;;2.40;;
71148;SDS011;59072;42.144;25.200;2022-09-19T00:48:34;2.80;;;2.28;;
71148;SDS011;59072;42.144;25.200;2022-09-19T00:51:00;3.35;;;2.60;;
71148;SDS011;59072;42.144;25.200;2022-09-19T00:53:29;4.68;;;2.65;;
71148;SDS011;59072;42.144;25.200;2022-09-19T00:55:56;3.13;;;2.55;;
71148;SDS011;59072;42.144;25.200;2022-09-19T00:58:43;3.83;;;2.58;;
71148;SDS011;59072;42.144;25.200;2022-09-19T01:01:10;4.13;;;2.70;;
71148;SDS011;59072;42.144;25.200;2022-09-19T01:03:36;6.25;;;2.70;;
71148;SDS011;59072;42.144;25.200;2022-09-19T01:17:23;2.70;;;2.35;;
71148;SDS011;59072;42.144;25.200;2022-09-19T01:30:50;3.55;;;2.63;;
71148;SDS011;59072;42.144;25.200;2022-09-19T01:33:37;3.45;;;2.40;;
71148;SDS011;59072;42.144;25.200;2022-09-19T01:36:05;3.58;;;2.20;;
71148;SDS011;59072;42.144;25.200;2022-09-19T01:38:34;3.95;;;2.53;;
71148;SDS011;59072;42.144;25.200;2022-09-19T01:41:04;3.13;;;2.15;;
71148;SDS011;59072;42.144;25.200;2022-09-19T01:43:32;3.92;;;2.38;;
71148;SDS011;59072;42.144;25.200;2022-09-19T01:45:58;4.07;;;2.47;;
71148;SDS011;59072;42.144;25.200;2022-09-19T01:59:31;3.60;;;2.42;;
71148;SDS011;59072;42.144;25.200;2022-09-19T02:05:14;4.18;;;2.33;;
71148;SDS011;59072;42.144;25.200;2022-09-19T02:10:54;3.25;;;1.98;;
71148;SDS011;59072;42.144;25.200;2022-09-19T02:13:26;2.33;;;2.00;;
71148;SDS011;59072;42.144;25.200;2022-09-19T02:15:57;5.13;;;2.13;;
71148;SDS011;59072;42.144;25.200;2022-09-19T02:19:03;3.35;;;2.05;;
71148;SDS011;59072;42.144;25.200;2022-09-19T02:21:46;2.88;;;2.03;;
71148;SDS011;59072;42.144;25.200;2022-09-19T02:24:19;2.65;;;2.05;;
71148;SDS011;59072;42.144;25.200;2022-09-19T02:26:51;3.22;;;2.25;;
71148;SDS011;59072;42.144;25.200;2022-09-19T02:29:20;3.03;;;2.00;;
71148;SDS011;59072;42.144;25.200;2022-09-19T02:31:53;3.30;;;2.10;;
71148;SDS011;59072;42.144;25.200;2022-09-19T02:34:21;3.10;;;2.20;;
71148;SDS011;59072;42.144;25.200;2022-09-19T02:37:01;3.47;;;2.35;;
71148;SDS011;59072;42.144;25.200;2022-09-19T02:39:33;3.42;;;2.40;;
71148;SDS011;59072;42.144;25.200;2022-09-19T02:53:24;4.95;;;2.75;;
71148;SDS011;59072;42.144;25.200;2022-09-19T02:55:55;4.45;;;2.70;;
71148;SDS011;59072;42.144;25.200;2022-09-19T02:58:25;3.47;;;2.88;;
71148;SDS011;59072;42.144;25.200;2022-09-19T03:00:56;5.47;;;3.22;;
71148;SDS011;59072;42.144;25.200;2022-09-19T03:03:31;3.70;;;3.00;;
71148;SDS011;59072;42.144;25.200;2022-09-19T03:06:20;4.22;;;3.05;;
71148;SDS011;59072;42.144;25.200;2022-09-19T03:08:49;3.75;;;3.05;;
71148;SDS011;59072;42.144;25.200;2022-09-19T03:11:18;5.07;;;3.15;;
71148;SDS011;59072;42.144;25.200;2022-09-19T03:13:47;7.10;;;2.95;;
71148;SDS011;59072;42.144;25.200;2022-09-19T03:16:16;6.53;;;3.50;;
71148;SDS011;59072;42.144;25.200;2022-09-19T03:18:46;4.00;;;3.15;;
71148;SDS011;59072;42.144;25.200;2022-09-19T03:21:13;3.75;;;2.85;;
71148;SDS011;59072;42.144;25.200;2022-09-19T03:23:47;4.65;;;3.03;;
71148;SDS011;59072;42.144;25.200;2022-09-19T03:26:18;6.18;;;3.63;;
71148;SDS011;59072;42.144;25.200;2022-09-19T03:28:50;5.25;;;3.60;;
71148;SDS011;59072;42.144;25.200;2022-09-19T03:31:16;5.13;;;3.38;;
71148;SDS011;59072;42.144;25.200;2022-09-19T03:33:42;4.28;;;3.05;;
71148;SDS011;59072;42.144;25.200;2022-09-19T03:36:08;5.93;;;3.20;;
71148;SDS011;59072;42.144;25.200;2022-09-19T03:38:37;6.07;;;3.47;;
71148;SDS011;59072;42.144;25.200;2022-09-19T03:41:09;6.60;;;3.70;;
71148;SDS011;59072;42.144;25.200;2022-09-19T03:43:38;5.28;;;3.40;;
71148;SDS011;59072;42.144;25.200;2022-09-19T03:46:07;5.10;;;3.00;;
71148;SDS011;59072;42.144;25.200;2022-09-19T03:48:35;6.00;;;3.35;;
71148;SDS011;59072;42.144;25.200;2022-09-19T03:51:01;3.92;;;2.88;;
71148;SDS011;59072;42.144;25.200;2022-09-19T03:53:26;3.88;;;2.95;;
71148;SDS011;59072;42.144;25.200;2022-09-19T03:55:53;4.80;;;3.03;;
71148;SDS011;59072;42.144;25.200;2022-09-19T03:58:20;4.47;;;3.10;;
71148;SDS011;59072;42.144;25.200;2022-09-19T04:00:45;5.53;;;3.28;;
71148;SDS011;59072;42.144;25.200;2022-09-19T04:03:11;4.35;;;3.30;;
71148;SDS011;59072;42.144;25.200;2022-09-19T04:05:37;5.30;;;3.30;;
71148;SDS011;59072;42.144;25.200;2022-09-19T04:08:02;8.02;;;3.80;;
71148;SDS011;59072;42.144;25.200;2022-09-19T04:10:28;6.70;;;3.53;;
71148;SDS011;59072;42.144;25.200;2022-09-19T04:12:54;5.30;;;3.40;;
71148;SDS011;59072;42.144;25.200;2022-09-19T04:15:21;4.95;;;3.20;;
71148;SDS011;59072;42.144;25.200;2022-09-19T04:17:47;4.72;;;3.67;;
71148;SDS011;59072;42.144;25.200;2022-09-19T04:20:12;5.43;;;3.80;;
71148;SDS011;59072;42.144;25.200;2022-09-19T04:22:38;6.68;;;3.50;;
71148;SDS011;59072;42.144;25.200;2022-09-19T04:25:04;5.90;;;3.30;;
71148;SDS011;59072;42.144;25.200;2022-09-19T04:27:38;4.35;;;3.72;;
71148;SDS011;59072;42.144;25.200;2022-09-19T04:32:30;5.53;;;3.60;;
71148;SDS011;59072;42.144;25.200;2022-09-19T04:34:55;4.50;;;3.40;;
71148;SDS011;59072;42.144;25.200;2022-09-19T04:37:24;4.75;;;3.00;;
71148;SDS011;59072;42.144;25.200;2022-09-19T04:39:50;3.70;;;3.03;;
71148;SDS011;59072;42.144;25.200;2022-09-19T04:42:16;7.32;;;3.25;;
71148;SDS011;59072;42.144;25.200;2022-09-19T04:44:42;4.38;;;2.83;;
71148;SDS011;59072;42.144;25.200;2022-09-19T04:47:08;4.80;;;2.75;;
71148;SDS011;59072;42.144;25.200;2022-09-19T04:49:35;7.57;;;3.55;;
71148;SDS011;59072;42.144;25.200;2022-09-19T04:52:04;5.85;;;3.67;;
71148;SDS011;59072;42.144;25.200;2022-09-19T04:54:37;6.45;;;3.30;;
71148;SDS011;59072;42.144;25.200;2022-09-19T04:57:04;5.20;;;3.35;;
71148;SDS011;59072;42.144;25.200;2022-09-19T04:59:31;6.45;;;3.38;;
71148;SDS011;59072;42.144;25.200;2022-09-19T05:01:58;7.63;;;5.20;;
71148;SDS011;59072;42.144;25.200;2022-09-19T05:04:24;6.78;;;4.53;;
71148;SDS011;59072;42.144;25.200;2022-09-19T05:06:50;10.25;;;7.25;;
71148;SDS011;59072;42.144;25.200;2022-09-19T05:09:17;7.57;;;5.47;;
71148;SDS011;59072;42.144;25.200;2022-09-19T05:11:42;6.93;;;4.68;;
71148;SDS011;59072;42.144;25.200;2022-09-19T05:14:11;5.93;;;4.03;;
71148;SDS011;59072;42.144;25.200;2022-09-19T05:16:40;7.70;;;4.32;;
71148;SDS011;59072;42.144;25.200;2022-09-19T05:19:06;5.03;;;3.65;;
71148;SDS011;59072;42.144;25.200;2022-09-19T05:21:32;9.63;;;8.02;;
71148;SDS011;59072;42.144;25.200;2022-09-19T05:23:59;33.33;;;29.95;;
71148;SDS011;59072;42.144;25.200;2022-09-19T05:26:25;42.25;;;37.78;;
71148;SDS011;59072;42.144;25.200;2022-09-19T05:28:51;37.90;;;34.10;;
71148;SDS011;59072;42.144;25.200;2022-09-19T05:31:16;36.53;;;32.83;;
71148;SDS011;59072;42.144;25.200;2022-09-19T05:33:43;31.83;;;28.42;;
71148;SDS011;59072;42.144;25.200;2022-09-19T05:36:09;31.27;;;27.70;;
71148;SDS011;59072;42.144;25.200;2022-09-19T05:38:35;28.30;;;25.30;;
71148;SDS011;59072;42.144;25.200;2022-09-19T05:41:01;29.27;;;26.17;;
71148;SDS011;59072;42.144;25.200;2022-09-19T05:43:29;32.13;;;27.65;;
71148;SDS011;59072;42.144;25.200;2022-09-19T05:45:55;29.85;;;24.83;;
71148;SDS011;59072;42.144;25.200;2022-09-19T05:48:21;23.80;;;21.13;;
71148;SDS011;59072;42.144;25.200;2022-09-19T05:50:48;20.17;;;16.88;;
71148;SDS011;59072;42.144;25.200;2022-09-19T05:53:15;20.17;;;16.23;;
71148;SDS011;59072;42.144;25.200;2022-09-19T05:56:00;14.55;;;12.93;;
71148;SDS011;59072;42.144;25.200;2022-09-19T05:58:27;11.20;;;8.85;;
71148;SDS011;59072;42.144;25.200;2022-09-19T06:00:53;10.83;;;7.93;;
71148;SDS011;59072;42.144;25.200;2022-09-19T06:03:19;10.27;;;7.90;;
71148;SDS011;59072;42.144;25.200;2022-09-19T06:05:47;11.00;;;7.45;;
71148;SDS011;59072;42.144;25.200;2022-09-19T06:08:18;10.05;;;6.47;;
71148;SDS011;59072;42.144;25.200;2022-09-19T06:10:44;5.75;;;3.55;;
71148;SDS011;59072;42.144;25.200;2022-09-19T06:13:11;5.85;;;3.67;;
71148;SDS011;59072;42.144;25.200;2022-09-19T06:15:38;5.13;;;3.23;;
71148;SDS011;59072;42.144;25.200;2022-09-19T06:18:04;5.82;;;3.35;;
71148;SDS011;59072;42.144;25.200;2022-09-19T06:20:29;3.80;;;2.50;;
71148;SDS011;59072;42.144;25.200;2022-09-19T06:22:58;5.43;;;2.67;;
71148;SDS011;59072;42.144;25.200;2022-09-19T06:25:28;5.75;;;2.70;;
71148;SDS011;59072;42.144;25.200;2022-09-19T06:27:55;3.78;;;2.42;;
71148;SDS011;59072;42.144;25.200;2022-09-19T06:30:22;4.45;;;2.80;;
71148;SDS011;59072;42.144;25.200;2022-09-19T06:32:48;6.55;;;3.00;;
71148;SDS011;59072;42.144;25.200;2022-09-19T06:35:16;5.20;;;2.45;;
71148;SDS011;59072;42.144;25.200;2022-09-19T06:37:42;2.78;;;2.00;;
71148;SDS011;59072;42.144;25.200;2022-09-19T06:40:08;3.33;;;2.17;;
71148;SDS011;59072;42.144;25.200;2022-09-19T06:42:36;2.25;;;1.58;;
71148;SDS011;59072;42.144;25.200;2022-09-19T06:45:01;3.20;;;1.80;;
71148;SDS011;59072;42.144;25.200;2022-09-19T06:47:28;2.53;;;1.55;;
71148;SDS011;59072;42.144;25.200;2022-09-19T06:49:53;4.18;;;1.90;;
71148;SDS011;59072;42.144;25.200;2022-09-19T06:52:19;3.25;;;1.60;;
71148;SDS011;59072;42.144;25.200;2022-09-19T06:54:44;3.50;;;1.80;;
71148;SDS011;59072;42.144;25.200;2022-09-19T06:57:10;3.10;;;1.50;;
71148;SDS011;59072;42.144;25.200;2022-09-19T06:59:36;2.45;;;1.58;;
71148;SDS011;59072;42.144;25.200;2022-09-19T07:02:02;1.98;;;1.35;;
71148;SDS011;59072;42.144;25.200;2022-09-19T07:04:28;1.92;;;1.38;;
71148;SDS011;59072;42.144;25.200;2022-09-19T07:06:53;2.60;;;1.20;;
71148;SDS011;59072;42.144;25.200;2022-09-19T07:11:47;1.83;;;1.00;;
71148;SDS011;59072;42.144;25.200;2022-09-19T07:14:12;2.40;;;1.20;;
71148;SDS011;59072;42.144;25.200;2022-09-19T07:16:38;2.15;;;1.25;;
71148;SDS011;59072;42.144;25.200;2022-09-19T07:19:03;2.10;;;1.08;;
71148;SDS011;59072;42.144;25.200;2022-09-19T07:21:29;2.85;;;1.13;;
71148;SDS011;59072;42.144;25.200;2022-09-19T07:23:54;1.48;;;1.10;;
71148;SDS011;59072;42.144;25.200;2022-09-19T07:26:20;1.95;;;1.30;;
71148;SDS011;59072;42.144;25.200;2022-09-19T07:28:46;3.25;;;1.33;;
71148;SDS011;59072;42.144;25.200;2022-09-19T07:31:12;1.98;;;1.20;;
71148;SDS011;59072;42.144;25.200;2022-09-19T07:33:37;1.55;;;1.10;;
71148;SDS011;59072;42.144;25.200;2022-09-19T07:36:03;1.73;;;1.08;;
71148;SDS011;59072;42.144;25.200;2022-09-19T07:38:29;3.60;;;1.30;;
71148;SDS011;59072;42.144;25.200;2022-09-19T07:40:55;4.13;;;1.30;;
71148;SDS011;59072;42.144;25.200;2022-09-19T07:43:20;2.72;;;1.35;;
71148;SDS011;59072;42.144;25.200;2022-09-19T07:45:47;2.67;;;1.35;;
71148;SDS011;59072;42.144;25.200;2022-09-19T07:50:40;2.63;;;1.25;;
71148;SDS011;59072;42.144;25.200;2022-09-19T07:53:07;2.28;;;1.20;;
71148;SDS011;59072;42.144;25.200;2022-09-19T07:55:36;2.80;;;1.30;;
71148;SDS011;59072;42.144;25.200;2022-09-19T07:58:02;1.60;;;1.20;;
71148;SDS011;59072;42.144;25.200;2022-09-19T08:00:30;2.37;;;1.10;;
71148;SDS011;59072;42.144;25.200;2022-09-19T08:03:01;0.98;;;0.82;;
71148;SDS011;59072;42.144;25.200;2022-09-19T08:05:37;3.15;;;1.20;;
71148;SDS011;59072;42.144;25.200;2022-09-19T08:08:05;2.38;;;1.10;;
71148;SDS011;59072;42.144;25.200;2022-09-19T08:10:32;3.28;;;1.17;;
71148;SDS011;59072;42.144;25.200;2022-09-19T08:13:01;1.50;;;0.88;;
71148;SDS011;59072;42.144;25.200;2022-09-19T08:15:29;3.05;;;0.80;;
71148;SDS011;59072;42.144;25.200;2022-09-19T08:17:55;4.00;;;1.30;;
71148;SDS011;59072;42.144;25.200;2022-09-19T08:20:23;1.15;;;0.77;;
71148;SDS011;59072;42.144;25.200;2022-09-19T08:22:53;1.45;;;0.77;;
71148;SDS011;59072;42.144;25.200;2022-09-19T08:25:26;3.10;;;1.00;;
71148;SDS011;59072;42.144;25.200;2022-09-19T08:27:53;1.55;;;0.73;;
71148;SDS011;59072;42.144;25.200;2022-09-19T08:30:20;1.08;;;0.55;;
71148;SDS011;59072;42.144;25.200;2022-09-19T08:32:47;1.90;;;0.70;;
71148;SDS011;59072;42.144;25.200;2022-09-19T08:35:14;1.27;;;0.75;;
71148;SDS011;59072;42.144;25.200;2022-09-19T08:37:41;0.75;;;0.60;;
71148;SDS011;59072;42.144;25.200;2022-09-19T08:40:12;0.90;;;0.57;;
71148;SDS011;59072;42.144;25.200;2022-09-19T08:42:50;1.27;;;0.50;;
71148;SDS011;59072;42.144;25.200;2022-09-19T08:45:21;2.45;;;0.90;;
71148;SDS011;59072;42.144;25.200;2022-09-19T08:48:02;1.08;;;0.82;;
71148;SDS011;59072;42.144;25.200;2022-09-19T08:50:34;1.25;;;0.77;;
71148;SDS011;59072;42.144;25.200;2022-09-19T08:53:03;1.65;;;0.80;;
71148;SDS011;59072;42.144;25.200;2022-09-19T08:55:34;2.22;;;0.60;;
71148;SDS011;59072;42.144;25.200;2022-09-19T08:58:11;0.73;;;0.60;;
71148;SDS011;59072;42.144;25.200;2022-09-19T09:00:42;1.95;;;0.57;;
71148;SDS011;59072;42.144;25.200;2022-09-19T09:03:13;1.70;;;0.60;;
71148;SDS011;59072;42.144;25.200;2022-09-19T09:06:14;1.42;;;0.70;;
71148;SDS011;59072;42.144;25.200;2022-09-19T09:11:49;0.95;;;0.68;;
71148;SDS011;59072;42.144;25.200;2022-09-19T09:22:27;4.82;;;2.75;;
71148;SDS011;59072;42.144;25.200;2022-09-19T09:25:20;1.83;;;0.73;;
71148;SDS011;59072;42.144;25.200;2022-09-19T09:28:09;1.17;;;0.57;;
71148;SDS011;59072;42.144;25.200;2022-09-19T09:30:44;1.48;;;0.65;;
71148;SDS011;59072;42.144;25.200;2022-09-19T09:33:25;1.35;;;0.70;;
71148;SDS011;59072;42.144;25.200;2022-09-19T09:35:56;0.55;;;0.50;;
71148;SDS011;59072;42.144;25.200;2022-09-19T09:38:29;1.40;;;0.60;;
71148;SDS011;59072;42.144;25.200;2022-09-19T09:47:00;1.05;;;0.57;;
71148;SDS011;59072;42.144;25.200;2022-09-19T09:49:34;26.98;;;18.13;;
71148;SDS011;59072;42.144;25.200;2022-09-19T10:00:10;0.35;;;0.30;;
71148;SDS011;59072;42.144;25.200;2022-09-19T10:03:06;0.70;;;0.47;;
71148;SDS011;59072;42.144;25.200;2022-09-19T10:05:57;1.55;;;0.60;;
71148;SDS011;59072;42.144;25.200;2022-09-19T10:11:05;0.88;;;0.57;;
71148;SDS011;59072;42.144;25.200;2022-09-19T10:13:38;1.63;;;0.45;;
71148;SDS011;59072;42.144;25.200;2022-09-19T10:16:11;0.63;;;0.47;;
71148;SDS011;59072;42.144;25.200;2022-09-19T10:19:22;1.13;;;0.52;;
71148;SDS011;59072;42.144;25.200;2022-09-19T10:21:39;1.08;;;0.55;;
71148;SDS011;59072;42.144;25.200;2022-09-19T10:27:11;21.95;;;1.63;;
71148;SDS011;59072;42.144;25.200;2022-09-19T10:29:47;11.93;;;1.35;;
71148;SDS011;59072;42.144;25.200;2022-09-19T10:32:15;1.02;;;0.70;;
71148;SDS011;59072;42.144;25.200;2022-09-19T10:34:48;7.32;;;0.98;;
71148;SDS011;59072;42.144;25.200;2022-09-19T10:39:43;6.53;;;1.48;;
71148;SDS011;59072;42.144;25.200;2022-09-19T10:47:44;2.42;;;0.70;;
71148;SDS011;59072;42.144;25.200;2022-09-19T10:50:14;1.88;;;0.73;;
71148;SDS011;59072;42.144;25.200;2022-09-19T10:52:42;0.75;;;0.60;;
71148;SDS011;59072;42.144;25.200;2022-09-19T10:55:17;2.30;;;0.65;;
71148;SDS011;59072;42.144;25.200;2022-09-19T10:57:48;1.65;;;0.70;;
71148;SDS011;59072;42.144;25.200;2022-09-19T11:00:24;1.40;;;0.50;;
71148;SDS011;59072;42.144;25.200;2022-09-19T11:06:01;0.47;;;0.47;;
71148;SDS011;59072;42.144;25.200;2022-09-19T11:08:26;1.83;;;0.60;;
71148;SDS011;59072;42.144;25.200;2022-09-19T11:10:53;2.25;;;0.75;;
71148;SDS011;59072;42.144;25.200;2022-09-19T11:13:19;2.22;;;0.60;;
71148;SDS011;59072;42.144;25.200;2022-09-19T11:16:07;2.08;;;0.50;;
71148;SDS011;59072;42.144;25.200;2022-09-19T11:26:38;7.80;;;0.93;;
71148;SDS011;59072;42.144;25.200;2022-09-19T11:34:51;0.68;;;0.45;;
71148;SDS011;59072;42.144;25.200;2022-09-19T11:42:52;4.15;;;2.17;;
71148;SDS011;59072;42.144;25.200;2022-09-19T11:45:44;2.10;;;0.80;;
71148;SDS011;59072;42.144;25.200;2022-09-19T12:04:40;0.93;;;0.60;;
71148;SDS011;59072;42.144;25.200;2022-09-19T12:10:37;1.00;;;0.60;;
71148;SDS011;59072;42.144;25.200;2022-09-19T12:18:21;0.90;;;0.57;;
71148;SDS011;59072;42.144;25.200;2022-09-19T12:20:51;2.10;;;0.93;;
71148;SDS011;59072;42.144;25.200;2022-09-19T12:23:26;1.73;;;0.60;;
71148;SDS011;59072;42.144;25.200;2022-09-19T12:26:17;0.70;;;0.60;;
71148;SDS011;59072;42.144;25.200;2022-09-19T12:28:58;2.90;;;0.80;;
71148;SDS011;59072;42.144;25.200;2022-09-19T12:31:43;7.80;;;4.88;;
71148;SDS011;59072;42.144;25.200;2022-09-19T12:37:05;1.90;;;1.10;;
71148;SDS011;59072;42.144;25.200;2022-09-19T12:42:21;1.88;;;0.98;;
71148;SDS011;59072;42.144;25.200;2022-09-19T12:44:59;1.83;;;0.90;;
71148;SDS011;59072;42.144;25.200;2022-09-19T12:50:35;1.48;;;0.63;;
71148;SDS011;59072;42.144;25.200;2022-09-19T12:53:08;1.33;;;0.70;;
71148;SDS011;59072;42.144;25.200;2022-09-19T12:56:01;1.73;;;0.77;;
71148;SDS011;59072;42.144;25.200;2022-09-19T12:58:32;3.63;;;0.90;;
71148;SDS011;59072;42.144;25.200;2022-09-19T13:01:02;2.05;;;0.90;;
71148;SDS011;59072;42.144;25.200;2022-09-19T13:03:40;1.77;;;0.88;;
71148;SDS011;59072;42.144;25.200;2022-09-19T13:11:38;2.10;;;0.80;;
71148;SDS011;59072;42.144;25.200;2022-09-19T13:14:16;1.35;;;0.90;;
71148;SDS011;59072;42.144;25.200;2022-09-19T13:16:43;4.30;;;0.80;;
71148;SDS011;59072;42.144;25.200;2022-09-19T13:19:48;1.95;;;0.93;;
71148;SDS011;59072;42.144;25.200;2022-09-19T13:22:42;2.90;;;0.98;;
71148;SDS011;59072;42.144;25.200;2022-09-19T13:25:31;1.20;;;0.80;;
71148;SDS011;59072;42.144;25.200;2022-09-19T13:33:22;1.75;;;0.77;;
71148;SDS011;59072;42.144;25.200;2022-09-19T13:35:53;1.60;;;0.90;;
71148;SDS011;59072;42.144;25.200;2022-09-19T13:38:23;3.67;;;1.20;;
71148;SDS011;59072;42.144;25.200;2022-09-19T13:41:13;2.35;;;1.00;;
71148;SDS011;59072;42.144;25.200;2022-09-19T13:49:00;2.80;;;0.85;;
71148;SDS011;59072;42.144;25.200;2022-09-19T13:51:42;1.77;;;1.23;;
71148;SDS011;59072;42.144;25.200;2022-09-19T13:56:44;1.33;;;0.80;;
71148;SDS011;59072;42.144;25.200;2022-09-19T13:59:39;1.42;;;1.00;;
71148;SDS011;59072;42.144;25.200;2022-09-19T14:04:45;1.85;;;0.90;;
71148;SDS011;59072;42.144;25.200;2022-09-19T14:08:04;3.63;;;0.90;;
71148;SDS011;59072;42.144;25.200;2022-09-19T14:18:39;3.10;;;1.10;;
71148;SDS011;59072;42.144;25.200;2022-09-19T14:23:11;4.07;;;1.27;;
71148;SDS011;59072;42.144;25.200;2022-09-19T14:25:39;12.43;;;8.18;;
71148;SDS011;59072;42.144;25.200;2022-09-19T14:28:23;2.03;;;1.02;;
71148;SDS011;59072;42.144;25.200;2022-09-19T14:36:52;3.70;;;1.13;;
71148;SDS011;59072;42.144;25.200;2022-09-19T14:39:47;2.00;;;1.10;;
71148;SDS011;59072;42.144;25.200;2022-09-19T14:47:59;2.42;;;1.10;;
71148;SDS011;59072;42.144;25.200;2022-09-19T14:50:39;4.03;;;1.50;;
71148;SDS011;59072;42.144;25.200;2022-09-19T14:53:20;2.95;;;1.63;;
71148;SDS011;59072;42.144;25.200;2022-09-19T14:55:51;4.60;;;1.67;;
71148;SDS011;59072;42.144;25.200;2022-09-19T14:58:21;6.10;;;2.10;;
71148;SDS011;59072;42.144;25.200;2022-09-19T15:06:49;2.35;;;1.10;;
71148;SDS011;59072;42.144;25.200;2022-09-19T15:09:21;5.18;;;1.58;;
71148;SDS011;59072;42.144;25.200;2022-09-19T15:11:52;5.60;;;1.38;;
71148;SDS011;59072;42.144;25.200;2022-09-19T15:14:20;4.85;;;1.05;;
71148;SDS011;59072;42.144;25.200;2022-09-19T15:16:48;2.47;;;1.30;;
71148;SDS011;59072;42.144;25.200;2022-09-19T15:19:37;3.08;;;1.42;;
71148;SDS011;59072;42.144;25.200;2022-09-19T15:22:26;1.80;;;1.10;;
71148;SDS011;59072;42.144;25.200;2022-09-19T15:24:52;2.60;;;1.00;;
71148;SDS011;59072;42.144;25.200;2022-09-19T15:27:24;3.00;;;0.90;;
71148;SDS011;59072;42.144;25.200;2022-09-19T15:29:53;4.45;;;1.27;;
71148;SDS011;59072;42.144;25.200;2022-09-19T15:34:56;4.80;;;1.60;;
71148;SDS011;59072;42.144;25.200;2022-09-19T15:37:23;4.93;;;2.33;;
71148;SDS011;59072;42.144;25.200;2022-09-19T15:39:50;5.10;;;1.95;;
71148;SDS011;59072;42.144;25.200;2022-09-19T15:44:43;4.57;;;1.63;;
71148;SDS011;59072;42.144;25.200;2022-09-19T15:47:15;5.88;;;2.33;;
71148;SDS011;59072;42.144;25.200;2022-09-19T15:49:47;4.97;;;2.28;;
71148;SDS011;59072;42.144;25.200;2022-09-19T15:52:24;6.60;;;2.30;;
71148;SDS011;59072;42.144;25.200;2022-09-19T15:54:55;7.03;;;2.67;;
71148;SDS011;59072;42.144;25.200;2022-09-19T15:57:31;6.93;;;2.47;;
71148;SDS011;59072;42.144;25.200;2022-09-19T16:00:21;7.97;;;2.47;;
71148;SDS011;59072;42.144;25.200;2022-09-19T16:02:50;15.65;;;10.20;;
71148;SDS011;59072;42.144;25.200;2022-09-19T16:05:20;16.65;;;11.63;;
71148;SDS011;59072;42.144;25.200;2022-09-19T16:07:57;8.95;;;6.00;;
71148;SDS011;59072;42.144;25.200;2022-09-19T16:10:44;9.85;;;4.82;;
71148;SDS011;59072;42.144;25.200;2022-09-19T16:15:58;7.10;;;2.83;;
71148;SDS011;59072;42.144;25.200;2022-09-19T16:18:23;7.82;;;3.38;;
71148;SDS011;59072;42.144;25.200;2022-09-19T16:20:54;8.60;;;2.85;;
71148;SDS011;59072;42.144;25.200;2022-09-19T16:23:24;6.63;;;3.45;;
71148;SDS011;59072;42.144;25.200;2022-09-19T16:25:57;5.97;;;2.20;;
71148;SDS011;59072;42.144;25.200;2022-09-19T16:33:42;5.32;;;1.80;;
71148;SDS011;59072;42.144;25.200;2022-09-19T16:36:32;6.97;;;2.20;;
71148;SDS011;59072;42.144;25.200;2022-09-19T16:41:40;11.00;;;3.47;;
71148;SDS011;59072;42.144;25.200;2022-09-19T16:46:42;7.30;;;2.53;;
71148;SDS011;59072;42.144;25.200;2022-09-19T16:49:08;4.85;;;2.50;;
71148;SDS011;59072;42.144;25.200;2022-09-19T16:51:33;8.70;;;2.47;;
71148;SDS011;59072;42.144;25.200;2022-09-19T16:53:59;5.80;;;2.50;;
71148;SDS011;59072;42.144;25.200;2022-09-19T16:56:28;7.30;;;2.83;;
71148;SDS011;59072;42.144;25.200;2022-09-19T16:58:54;6.60;;;1.92;;
71148;SDS011;59072;42.144;25.200;2022-09-19T17:01:20;5.22;;;2.22;;
71148;SDS011;59072;42.144;25.200;2022-09-19T17:03:46;4.35;;;2.28;;
71148;SDS011;59072;42.144;25.200;2022-09-19T17:06:11;7.03;;;2.38;;
71148;SDS011;59072;42.144;25.200;2022-09-19T17:08:38;6.25;;;1.77;;
71148;SDS011;59072;42.144;25.200;2022-09-19T17:11:04;8.32;;;2.08;;
71148;SDS011;59072;42.144;25.200;2022-09-19T17:13:30;6.35;;;2.38;;
71148;SDS011;59072;42.144;25.200;2022-09-19T17:15:56;4.38;;;2.00;;
71148;SDS011;59072;42.144;25.200;2022-09-19T17:18:26;3.95;;;1.80;;
71148;SDS011;59072;42.144;25.200;2022-09-19T17:20:52;7.25;;;2.33;;
71148;SDS011;59072;42.144;25.200;2022-09-19T17:23:22;7.05;;;3.50;;
71148;SDS011;59072;42.144;25.200;2022-09-19T17:25:50;7.15;;;4.05;;
71148;SDS011;59072;42.144;25.200;2022-09-19T17:28:20;7.40;;;2.85;;
71148;SDS011;59072;42.144;25.200;2022-09-19T17:30:48;7.47;;;3.75;;
71148;SDS011;59072;42.144;25.200;2022-09-19T17:33:15;7.95;;;3.88;;
71148;SDS011;59072;42.144;25.200;2022-09-19T17:35:42;10.93;;;5.15;;
71148;SDS011;59072;42.144;25.200;2022-09-19T17:38:07;8.85;;;4.95;;
71148;SDS011;59072;42.144;25.200;2022-09-19T17:40:37;8.85;;;4.93;;
71148;SDS011;59072;42.144;25.200;2022-09-19T17:43:05;10.38;;;4.57;;
71148;SDS011;59072;42.144;25.200;2022-09-19T17:45:32;11.35;;;4.88;;
71148;SDS011;59072;42.144;25.200;2022-09-19T17:47:59;10.88;;;4.50;;
71148;SDS011;59072;42.144;25.200;2022-09-19T17:50:26;9.07;;;3.88;;
71148;SDS011;59072;42.144;25.200;2022-09-19T17:52:52;11.63;;;4.40;;
71148;SDS011;59072;42.144;25.200;2022-09-19T17:55:18;8.00;;;3.20;;
71148;SDS011;59072;42.144;25.200;2022-09-19T17:57:44;8.65;;;3.42;;
71148;SDS011;59072;42.144;25.200;2022-09-19T18:00:10;5.68;;;3.05;;
71148;SDS011;59072;42.144;25.200;2022-09-19T18:02:36;7.68;;;2.92;;
71148;SDS011;59072;42.144;25.200;2022-09-19T18:05:20;6.95;;;2.90;;
71148;SDS011;59072;42.144;25.200;2022-09-19T18:07:48;7.90;;;2.65;;
71148;SDS011;59072;42.144;25.200;2022-09-19T18:10:19;5.45;;;2.50;;
71148;SDS011;59072;42.144;25.200;2022-09-19T18:12:44;5.30;;;2.47;;
71148;SDS011;59072;42.144;25.200;2022-09-19T18:15:10;5.20;;;2.33;;
71148;SDS011;59072;42.144;25.200;2022-09-19T18:17:37;4.68;;;2.45;;
71148;SDS011;59072;42.144;25.200;2022-09-19T18:20:02;4.15;;;2.10;;
71148;SDS011;59072;42.144;25.200;2022-09-19T18:22:28;4.10;;;2.05;;
71148;SDS011;59072;42.144;25.200;2022-09-19T18:24:54;3.55;;;1.60;;
71148;SDS011;59072;42.144;25.200;2022-09-19T18:27:21;2.53;;;1.48;;
71148;SDS011;59072;42.144;25.200;2022-09-19T18:29:47;2.83;;;1.23;;
71148;SDS011;59072;42.144;25.200;2022-09-19T18:32:13;3.33;;;1.38;;
71148;SDS011;59072;42.144;25.200;2022-09-19T18:34:39;2.03;;;1.20;;
71148;SDS011;59072;42.144;25.200;2022-09-19T18:37:05;3.17;;;1.20;;